createdAt,value
2022-12-25T00:01:39.203Z,99.57
2022-12-25T00:04:09.192Z,99.63
2022-12-25T00:06:37.829Z,99.03
2022-12-25T00:09:07.066Z,98.11
2022-12-25T00:11:35.926Z,97.86
2022-12-25T00:14:04.567Z,97.71
2022-12-25T00:16:33.176Z,96.83
2022-12-25T00:19:02.174Z,98.66
2022-12-25T00:21:33.633Z,95.29
2022-12-25T00:24:03.602Z,95.46
2022-12-25T00:26:32.311Z,96.77
2022-12-25T00:29:02.677Z,97.40
2022-12-25T00:31:31.237Z,97.57
2022-12-25T00:33:59.495Z,99.09
2022-12-25T00:36:28.233Z,99.19
2022-12-25T00:38:59.501Z,99.15
2022-12-25T00:41:43.565Z,99.36
2022-12-25T00:44:14.982Z,97.97
2022-12-25T00:46:44.083Z,97.88
2022-12-25T00:49:14.062Z,98.78
2022-12-25T00:51:42.606Z,97.53
2022-12-25T00:54:13.463Z,98.18
2022-12-25T00:56:41.936Z,97.87
2022-12-25T00:59:10.359Z,98.10
2022-12-25T01:01:40.499Z,98.79
2022-12-25T01:04:11.528Z,98.41
2022-12-25T01:06:40.493Z,98.18
2022-12-25T01:09:26.496Z,98.77
2022-12-25T01:11:57.437Z,98.66
2022-12-25T01:14:25.895Z,98.44
2022-12-25T01:16:54.353Z,98.59
2022-12-25T01:19:23.051Z,98.80
2022-12-25T01:21:51.990Z,98.74
2022-12-25T01:24:21.350Z,99.10
2022-12-25T01:26:51.941Z,99.80
2022-12-25T01:29:21.525Z,98.94
2022-12-25T01:31:49.928Z,98.04
2022-12-25T01:34:18.581Z,98.34
2022-12-25T01:36:47.104Z,98.65
2022-12-25T01:39:15.735Z,99.67
2022-12-25T01:41:44.405Z,97.91
2022-12-25T01:44:46.036Z,97.94
2022-12-25T01:47:19.760Z,98.35
2022-12-25T01:49:50.905Z,99.19
2022-12-25T01:52:24.477Z,98.98
2022-12-25T01:54:55.667Z,98.62
2022-12-25T01:57:27.123Z,98.81
2022-12-25T01:59:57.028Z,98.81
2022-12-25T02:02:28.709Z,98.27
2022-12-25T02:05:01.025Z,98.19
2022-12-25T02:07:31.040Z,97.39
2022-12-25T02:10:00.172Z,97.00
2022-12-25T02:12:31.830Z,97.11
2022-12-25T02:15:05.935Z,97.83
2022-12-25T02:17:43.002Z,97.60
2022-12-25T02:20:33.959Z,97.04
2022-12-25T02:23:31.594Z,97.40
2022-12-25T02:26:16.088Z,98.13
2022-12-25T02:28:53.919Z,96.24
2022-12-25T02:31:29.035Z,96.98
2022-12-25T02:34:03.105Z,96.88
2022-12-25T02:36:37.135Z,97.78
2022-12-25T02:39:30.433Z,97.89
2022-12-25T02:42:04.064Z,98.27
2022-12-25T02:44:57.789Z,99.44
2022-12-25T02:47:44.519Z,99.68
2022-12-25T02:50:32.493Z,99.65
2022-12-25T02:53:22.351Z,99.53
2022-12-25T02:56:09.554Z,98.39
2022-12-25T02:58:58.323Z,98.54
2022-12-25T03:01:48.590Z,98.59
2022-12-25T03:04:41.674Z,99.52
2022-12-25T03:07:13.390Z,99.42
2022-12-25T03:10:05.937Z,98.32
2022-12-25T03:12:42.822Z,98.50
2022-12-25T03:15:30.604Z,99.03
2022-12-25T03:18:06.362Z,99.99
2022-12-25T03:20:54.888Z,99.05
2022-12-25T03:23:45.677Z,98.93
2022-12-25T03:26:30.908Z,99.86
2022-12-25T03:29:00.798Z,99.99
2022-12-25T03:31:40.801Z,99.99
2022-12-25T03:34:41.066Z,99.38
2022-12-25T03:37:38.927Z,98.98
2022-12-25T03:40:34.747Z,98.66
2022-12-25T03:43:33.026Z,99.19
2022-12-25T03:46:27.962Z,99.56
2022-12-25T03:49:19.566Z,99.99
2022-12-25T03:52:10.359Z,99.99
2022-12-25T03:54:58.413Z,99.99
2022-12-25T03:57:44.585Z,99.99
2022-12-25T04:00:31.046Z,99.99
2022-12-25T04:03:16.717Z,99.68
2022-12-25T04:06:04.587Z,99.80
2022-12-25T04:08:52.277Z,99.93
2022-12-25T04:11:38.408Z,99.69
2022-12-25T04:14:23.984Z,99.79
2022-12-25T04:17:10.076Z,99.99
2022-12-25T04:19:52.469Z,99.99
2022-12-25T04:22:40.074Z,99.99
2022-12-25T04:25:28.112Z,99.99
2022-12-25T04:28:19.841Z,99.99
2022-12-25T04:31:05.912Z,99.99
2022-12-25T04:33:52.235Z,99.99
2022-12-25T04:36:20.535Z,99.99
2022-12-25T04:38:49.395Z,99.99
2022-12-25T04:41:19.361Z,99.99
2022-12-25T04:43:48.339Z,99.99
2022-12-25T04:46:16.818Z,99.99
2022-12-25T04:48:45.349Z,99.99
2022-12-25T04:51:16.254Z,99.99
2022-12-25T04:53:45.740Z,99.99
2022-12-25T04:56:17.665Z,99.99
2022-12-25T04:58:52.613Z,99.99
2022-12-25T05:01:21.629Z,99.99
2022-12-25T05:03:50.364Z,99.99
2022-12-25T05:06:18.990Z,99.99
2022-12-25T05:08:48.009Z,99.99
2022-12-25T05:11:16.809Z,99.99
2022-12-25T05:13:45.623Z,99.99
2022-12-25T05:16:18.697Z,99.99
2022-12-25T05:18:50.633Z,99.99
2022-12-25T05:21:23.888Z,99.99
2022-12-25T05:23:53.341Z,99.99
2022-12-25T05:26:24.421Z,99.99
2022-12-25T05:28:53.181Z,99.99
2022-12-25T05:31:24.424Z,99.99
2022-12-25T05:33:53.627Z,99.99
2022-12-25T05:36:22.292Z,99.99
2022-12-25T05:38:51.944Z,99.99
2022-12-25T05:41:20.727Z,99.99
2022-12-25T05:43:51.500Z,99.99
2022-12-25T05:46:24.601Z,99.99
2022-12-25T05:48:54.162Z,99.99
2022-12-25T05:51:22.514Z,99.99
2022-12-25T05:53:51.296Z,99.99
2022-12-25T05:56:19.459Z,99.99
2022-12-25T05:58:47.887Z,99.99
2022-12-25T06:01:21.873Z,99.99
2022-12-25T06:03:52.982Z,99.99
2022-12-25T06:06:21.421Z,99.99
2022-12-25T06:08:51.276Z,99.99
2022-12-25T06:11:19.918Z,99.99
2022-12-25T06:13:52.622Z,99.99
2022-12-25T06:16:22.425Z,99.99
2022-12-25T06:18:58.756Z,99.99
2022-12-25T06:21:27.869Z,99.99
2022-12-25T06:23:56.627Z,99.99
2022-12-25T06:26:24.933Z,99.99
2022-12-25T06:28:54.133Z,99.99
2022-12-25T06:31:26.348Z,99.99
2022-12-25T06:33:56.922Z,99.99
2022-12-25T06:36:27.505Z,99.99
2022-12-25T06:38:57.308Z,99.99
2022-12-25T06:41:30.861Z,99.99
2022-12-25T06:44:00.602Z,99.99
2022-12-25T06:46:30.852Z,99.99
2022-12-25T06:49:03.333Z,99.99
2022-12-25T06:51:33.556Z,99.99
2022-12-25T06:54:04.352Z,99.99
2022-12-25T06:56:35.396Z,99.99
2022-12-25T06:59:06.645Z,99.99
2022-12-25T07:01:38.168Z,99.99
2022-12-25T07:04:17.210Z,99.99
2022-12-25T07:06:45.677Z,99.99
2022-12-25T07:09:14.200Z,99.99
2022-12-25T07:11:42.792Z,99.99
2022-12-25T07:14:23.427Z,99.99
2022-12-25T07:16:53.470Z,99.99
2022-12-25T07:19:23.562Z,99.99
2022-12-25T07:21:52.320Z,99.99
2022-12-25T07:24:21.705Z,99.99
2022-12-25T07:26:51.048Z,99.99
2022-12-25T07:29:22.868Z,99.99
2022-12-25T07:31:52.425Z,99.99
2022-12-25T07:34:23.217Z,99.99
2022-12-25T07:37:00.021Z,99.99
2022-12-25T07:39:28.511Z,99.99
2022-12-25T07:41:56.934Z,99.99
2022-12-25T07:44:25.535Z,99.99
2022-12-25T07:46:53.741Z,99.99
2022-12-25T07:49:22.700Z,99.99
2022-12-25T07:51:51.564Z,99.99
2022-12-25T07:54:22.481Z,99.99
2022-12-25T07:56:53.615Z,99.99
2022-12-25T07:59:24.971Z,99.99
2022-12-25T08:01:53.823Z,99.99
2022-12-25T08:04:23.968Z,99.99
2022-12-25T08:06:52.498Z,99.99
2022-12-25T08:09:23.508Z,99.99
2022-12-25T08:11:52.728Z,99.99
2022-12-25T08:14:21.175Z,99.99
2022-12-25T08:16:52.070Z,99.99
2022-12-25T08:19:24.414Z,99.76
2022-12-25T08:21:53.217Z,99.99
2022-12-25T08:24:26.100Z,99.79
2022-12-25T08:26:55.118Z,99.99
2022-12-25T08:29:24.621Z,99.99
2022-12-25T08:31:54.033Z,99.99
2022-12-25T08:34:24.064Z,99.80
2022-12-25T08:36:52.504Z,99.90
2022-12-25T08:39:23.041Z,99.99
2022-12-25T08:41:51.834Z,99.99
2022-12-25T08:44:20.546Z,99.82
2022-12-25T08:46:49.183Z,99.54
2022-12-25T08:49:21.237Z,98.96
2022-12-25T08:51:50.329Z,99.05
2022-12-25T08:54:18.847Z,98.86
2022-12-25T08:56:49.469Z,98.77
2022-12-25T08:59:19.779Z,97.67
2022-12-25T09:01:48.490Z,97.82
2022-12-25T09:04:17.113Z,97.45
2022-12-25T09:06:45.712Z,97.38
2022-12-25T09:09:16.428Z,96.56
2022-12-25T09:11:45.254Z,96.24
2022-12-25T09:14:15.460Z,95.92
2022-12-25T09:16:43.850Z,96.18
2022-12-25T09:19:12.335Z,95.91
2022-12-25T09:21:41.325Z,95.32
2022-12-25T09:24:10.054Z,94.87
2022-12-25T09:26:39.214Z,95.37
2022-12-25T09:29:08.046Z,94.67
2022-12-25T09:31:39.567Z,94.27
2022-12-25T09:34:10.445Z,94.33
2022-12-25T09:36:40.529Z,93.94
2022-12-25T09:39:10.017Z,93.38
2022-12-25T09:41:50.181Z,92.77
2022-12-25T09:44:24.718Z,93.40
2022-12-25T09:46:57.827Z,93.35
2022-12-25T09:49:37.348Z,92.96
2022-12-25T09:52:09.788Z,93.70
2022-12-25T09:54:46.137Z,93.72
2022-12-25T09:57:16.819Z,93.45
2022-12-25T09:59:47.543Z,93.09
2022-12-25T10:02:39.799Z,92.51
2022-12-25T10:05:34.281Z,92.52
2022-12-25T10:08:13.455Z,91.83
2022-12-25T10:10:51.204Z,91.59
2022-12-25T10:13:55.573Z,90.75
2022-12-25T10:16:37.362Z,90.12
2022-12-25T10:19:31.852Z,89.83
2022-12-25T10:22:05.138Z,89.04
2022-12-25T10:24:37.970Z,88.12
2022-12-25T10:27:13.724Z,88.38
2022-12-25T10:29:44.102Z,86.71
2022-12-25T10:32:12.585Z,87.13
2022-12-25T10:34:43.698Z,86.49
2022-12-25T10:37:14.749Z,86.11
2022-12-25T10:39:46.826Z,86.44
2022-12-25T10:42:20.945Z,86.65
2022-12-25T10:44:58.009Z,85.73
2022-12-25T10:47:29.232Z,85.56
2022-12-25T10:50:00.580Z,85.51
2022-12-25T10:52:31.086Z,85.87
2022-12-25T10:54:59.744Z,85.73
2022-12-25T10:57:29.851Z,85.54
2022-12-25T10:59:58.995Z,85.27
2022-12-25T11:02:29.429Z,85.25
2022-12-25T11:05:04.528Z,84.95
2022-12-25T11:07:34.648Z,85.26
2022-12-25T11:10:06.226Z,85.30
2022-12-25T11:12:39.044Z,85.28
2022-12-25T11:15:33.947Z,84.95
2022-12-25T11:18:02.740Z,84.25
2022-12-25T11:20:35.576Z,83.90
2022-12-25T11:23:11.115Z,83.76
2022-12-25T11:25:40.844Z,83.69
2022-12-25T11:28:13.646Z,83.86
2022-12-25T11:30:46.831Z,83.64
2022-12-25T11:33:17.076Z,82.98
2022-12-25T11:35:54.422Z,83.06
2022-12-25T11:38:24.793Z,82.48
2022-12-25T11:40:58.308Z,82.72
2022-12-25T11:43:31.585Z,82.03
2022-12-25T11:46:12.802Z,81.75
2022-12-25T11:48:56.072Z,81.56
2022-12-25T11:51:29.897Z,81.74
2022-12-25T11:54:02.134Z,81.93
2022-12-25T11:56:34.313Z,81.54
2022-12-25T11:59:08.011Z,80.79
2022-12-25T12:01:43.361Z,81.40
2022-12-25T12:04:24.308Z,80.65
2022-12-25T12:07:02.964Z,79.61
2022-12-25T12:09:42.416Z,79.84
2022-12-25T12:12:18.442Z,79.62
2022-12-25T12:14:55.185Z,79.38
2022-12-25T12:17:25.764Z,79.10
2022-12-25T12:19:54.477Z,80.22
2022-12-25T12:22:30.927Z,79.38
2022-12-25T12:25:06.689Z,79.19
2022-12-25T12:27:38.390Z,79.36
2022-12-25T12:30:09.295Z,79.30
2022-12-25T12:32:42.203Z,79.27
2022-12-25T12:35:19.792Z,78.00
2022-12-25T12:37:54.146Z,76.81
2022-12-25T12:40:31.470Z,77.94
2022-12-25T12:43:00.120Z,77.17
2022-12-25T12:45:34.986Z,77.52
2022-12-25T12:48:16.659Z,78.19
2022-12-25T12:50:46.457Z,77.86
2022-12-25T12:53:29.286Z,78.74
2022-12-25T12:55:58.374Z,78.84
2022-12-25T12:58:33.426Z,77.97
2022-12-25T13:01:12.879Z,79.58
2022-12-25T13:04:00.988Z,78.49
2022-12-25T13:06:35.930Z,79.01
2022-12-25T13:09:13.745Z,79.72
2022-12-25T13:11:44.848Z,80.19
2022-12-25T13:14:19.634Z,80.32
2022-12-25T13:16:49.758Z,81.02
2022-12-25T13:19:21.994Z,81.59
2022-12-25T13:21:56.993Z,81.74
2022-12-25T13:24:28.581Z,82.20
2022-12-25T13:26:57.353Z,82.71
2022-12-25T13:29:31.379Z,83.38
2022-12-25T13:32:03.357Z,82.90
2022-12-25T13:34:33.386Z,83.73
2022-12-25T13:37:11.523Z,83.70
2022-12-25T13:39:49.919Z,84.21
2022-12-25T13:42:27.243Z,84.57
2022-12-25T13:44:58.728Z,84.75
2022-12-25T13:47:31.182Z,85.23
2022-12-25T13:50:05.927Z,85.21
2022-12-25T13:52:36.701Z,85.64
2022-12-25T13:55:14.335Z,86.09
2022-12-25T13:57:45.658Z,86.05
2022-12-25T14:00:20.900Z,86.03
2022-12-25T14:02:50.182Z,86.19
2022-12-25T14:05:28.171Z,86.28
2022-12-25T14:07:59.876Z,86.53
2022-12-25T14:10:31.842Z,86.61
2022-12-25T14:13:03.404Z,86.36
2022-12-25T14:15:34.536Z,86.47
2022-12-25T14:18:04.620Z,86.91
2022-12-25T14:20:38.714Z,87.49
2022-12-25T14:23:09.198Z,87.66
2022-12-25T14:25:44.251Z,87.67
2022-12-25T14:28:20.781Z,87.80
2022-12-25T14:30:49.676Z,87.70
2022-12-25T14:33:21.606Z,88.27
2022-12-25T14:35:51.308Z,88.38
2022-12-25T14:38:26.114Z,88.67
2022-12-25T14:41:04.936Z,88.57
2022-12-25T14:43:34.660Z,88.83
2022-12-25T14:46:06.496Z,89.08
2022-12-25T14:48:34.890Z,88.96
2022-12-25T14:51:11.523Z,89.29
2022-12-25T14:53:48.631Z,89.55
2022-12-25T14:56:21.867Z,89.68
2022-12-25T14:58:53.012Z,89.56
2022-12-25T15:01:24.890Z,89.67
2022-12-25T15:03:53.714Z,89.60
2022-12-25T15:06:25.249Z,89.65
2022-12-25T15:08:58.193Z,89.85
2022-12-25T15:11:29.271Z,89.75
2022-12-25T15:13:57.823Z,89.84
2022-12-25T15:16:30.913Z,89.94
2022-12-25T15:19:02.609Z,90.05
2022-12-25T15:21:32.394Z,89.77
2022-12-25T15:24:01.610Z,90.07
2022-12-25T15:26:40.861Z,90.29
2022-12-25T15:29:10.024Z,90.57
2022-12-25T15:31:41.033Z,90.37
2022-12-25T15:34:17.951Z,90.41
2022-12-25T15:36:46.546Z,90.50
2022-12-25T15:39:16.189Z,90.20
2022-12-25T15:42:03.703Z,90.27
2022-12-25T15:44:32.188Z,89.98
2022-12-25T15:47:01.040Z,89.90
2022-12-25T15:49:35.773Z,89.90
2022-12-25T15:52:06.327Z,90.06
2022-12-25T15:54:34.875Z,89.90
2022-12-25T15:57:08.008Z,89.82
2022-12-25T15:59:36.348Z,90.28
2022-12-25T16:02:07.585Z,90.42
2022-12-25T16:04:36.412Z,89.94
2022-12-25T16:07:05.020Z,89.90
2022-12-25T16:09:33.336Z,89.93
2022-12-25T16:12:01.910Z,89.57
2022-12-25T16:14:33.411Z,89.92
2022-12-25T16:17:03.838Z,89.89
2022-12-25T16:19:32.717Z,89.95
2022-12-25T16:22:01.648Z,89.82
2022-12-25T16:24:30.362Z,89.89
2022-12-25T16:27:00.879Z,89.59
2022-12-25T16:29:29.477Z,89.79
2022-12-25T16:32:00.872Z,89.86
2022-12-25T16:34:31.055Z,89.80
2022-12-25T16:37:00.580Z,89.93
2022-12-25T16:39:38.637Z,89.88
2022-12-25T16:42:07.539Z,90.02
2022-12-25T16:44:40.216Z,90.12
2022-12-25T16:47:12.511Z,90.22
2022-12-25T16:49:41.664Z,90.37
2022-12-25T16:52:10.564Z,90.47
2022-12-25T16:54:39.427Z,90.59
2022-12-25T16:57:08.790Z,90.44
2022-12-25T16:59:39.023Z,90.32
2022-12-25T17:02:21.121Z,90.40
2022-12-25T17:04:49.906Z,90.36
2022-12-25T17:07:20.370Z,90.68
2022-12-25T17:09:49.589Z,90.34
2022-12-25T17:12:18.638Z,90.54
2022-12-25T17:14:47.147Z,90.76
2022-12-25T17:17:17.067Z,90.56
2022-12-25T17:19:45.794Z,90.70
2022-12-25T17:22:14.395Z,90.65
2022-12-25T17:24:42.874Z,90.30
2022-12-25T17:27:11.641Z,90.50
2022-12-25T17:29:41.171Z,90.16
2022-12-25T17:32:10.769Z,90.29
2022-12-25T17:34:42.457Z,89.84
2022-12-25T17:37:11.091Z,89.79
2022-12-25T17:39:40.133Z,89.97
2022-12-25T17:42:09.471Z,89.36
2022-12-25T17:44:38.231Z,89.44
2022-12-25T17:47:06.863Z,89.71
2022-12-25T17:49:36.143Z,89.51
2022-12-25T17:52:06.234Z,89.67
2022-12-25T17:54:34.980Z,89.73
2022-12-25T17:57:03.706Z,89.85
2022-12-25T17:59:31.914Z,89.67
2022-12-25T18:02:00.314Z,89.67
2022-12-25T18:04:30.726Z,89.67
2022-12-25T18:07:02.126Z,89.55
2022-12-25T18:09:31.936Z,89.77
2022-12-25T18:12:00.439Z,89.60
2022-12-25T18:14:29.237Z,89.64
2022-12-25T18:16:58.163Z,89.69
2022-12-25T18:19:26.754Z,90.27
2022-12-25T18:21:55.662Z,90.04
2022-12-25T18:24:26.244Z,89.73
2022-12-25T18:26:56.029Z,89.83
2022-12-25T18:29:27.899Z,90.13
2022-12-25T18:31:57.528Z,90.11
2022-12-25T18:34:26.689Z,90.43
2022-12-25T18:37:02.997Z,90.46
2022-12-25T18:39:31.620Z,91.20
2022-12-25T18:42:18.972Z,91.18
2022-12-25T18:44:48.446Z,91.15
2022-12-25T18:47:17.070Z,91.33
2022-12-25T18:49:46.941Z,91.31
2022-12-25T18:52:48.031Z,91.15
2022-12-25T18:55:04.363Z,91.55
2022-12-25T18:57:34.798Z,91.76
2022-12-25T19:00:05.481Z,91.59
2022-12-25T19:02:34.646Z,91.63
2022-12-25T19:05:03.921Z,91.33
2022-12-25T19:07:33.771Z,91.05
2022-12-25T19:10:04.146Z,90.84
2022-12-25T19:12:38.879Z,90.78
2022-12-25T19:15:09.736Z,90.82
2022-12-25T19:17:44.054Z,90.75
2022-12-25T19:20:13.296Z,90.60
2022-12-25T19:22:42.660Z,90.84
2022-12-25T19:25:11.400Z,90.96
2022-12-25T19:27:42.010Z,90.76
2022-12-25T19:30:12.260Z,90.65
2022-12-25T19:32:41.966Z,90.60
2022-12-25T19:35:11.864Z,90.70
2022-12-25T19:37:40.687Z,90.78
2022-12-25T19:40:10.373Z,90.74
2022-12-25T19:42:40.703Z,90.53
2022-12-25T19:45:12.480Z,90.41
2022-12-25T19:47:44.376Z,90.34
2022-12-25T19:50:13.191Z,90.53
2022-12-25T19:52:44.381Z,90.67
2022-12-25T19:55:13.241Z,90.63
2022-12-25T19:57:43.120Z,90.79
2022-12-25T20:00:11.926Z,90.89
2022-12-25T20:02:44.374Z,90.46
2022-12-25T20:05:13.557Z,90.26
2022-12-25T20:07:41.976Z,89.62
2022-12-25T20:10:10.891Z,89.69
2022-12-25T20:12:40.093Z,89.38
2022-12-25T20:15:11.341Z,89.03
2022-12-25T20:17:39.753Z,88.86
2022-12-25T20:20:09.317Z,88.69
2022-12-25T20:22:37.817Z,88.66
2022-12-25T20:25:09.094Z,87.88
2022-12-25T20:27:38.381Z,87.92
2022-12-25T20:30:10.610Z,87.45
2022-12-25T20:32:48.084Z,86.75
2022-12-25T20:35:19.714Z,86.99
2022-12-25T20:37:49.366Z,87.17
2022-12-25T20:40:20.528Z,86.73
2022-12-25T20:42:52.022Z,86.63
2022-12-25T20:45:22.649Z,86.63
2022-12-25T20:47:54.143Z,86.67
2022-12-25T20:50:22.924Z,86.33
2022-12-25T20:52:54.671Z,86.41
2022-12-25T20:55:26.119Z,85.65
2022-12-25T20:57:56.269Z,85.51
2022-12-25T21:00:31.372Z,85.92
2022-12-25T21:03:01.454Z,86.20
2022-12-25T21:05:31.468Z,86.48
2022-12-25T21:08:00.793Z,86.60
2022-12-25T21:10:30.970Z,86.86
2022-12-25T21:13:01.011Z,86.36
2022-12-25T21:15:31.894Z,86.88
2022-12-25T21:18:01.632Z,86.36
2022-12-25T21:20:30.420Z,86.32
2022-12-25T21:22:58.623Z,86.78
2022-12-25T21:25:31.620Z,86.74
2022-12-25T21:28:01.381Z,86.95
2022-12-25T21:30:36.810Z,86.86
2022-12-25T21:33:22.930Z,86.99
2022-12-25T21:35:52.820Z,86.93
2022-12-25T21:38:25.042Z,87.50
2022-12-25T21:40:54.009Z,88.09
2022-12-25T21:43:23.014Z,87.91
2022-12-25T21:45:54.373Z,87.41
2022-12-25T21:48:25.888Z,87.22
2022-12-25T21:51:13.767Z,87.57
2022-12-25T21:53:43.635Z,87.78
2022-12-25T21:56:12.935Z,87.90
2022-12-25T21:58:43.569Z,87.62
2022-12-25T22:01:18.923Z,87.77
2022-12-25T22:03:52.277Z,87.58
2022-12-25T22:06:38.602Z,87.72
2022-12-25T22:09:13.896Z,87.25
2022-12-25T22:12:00.877Z,87.44
2022-12-25T22:14:51.356Z,87.73
2022-12-25T22:17:43.463Z,88.11
2022-12-25T22:20:15.904Z,87.95
2022-12-25T22:22:48.178Z,88.30
2022-12-25T22:25:23.711Z,87.91
2022-12-25T22:27:54.162Z,88.10
2022-12-25T22:30:28.807Z,88.30
2022-12-25T22:32:59.953Z,88.40
2022-12-25T22:35:30.814Z,88.41
2022-12-25T22:38:02.821Z,88.30
2022-12-25T22:40:31.553Z,88.41
2022-12-25T22:43:04.366Z,88.58
2022-12-25T22:45:34.002Z,88.61
2022-12-25T22:48:05.297Z,88.82
2022-12-25T22:50:34.076Z,88.65
2022-12-25T22:53:02.297Z,88.90
2022-12-25T22:55:31.885Z,89.15
2022-12-25T22:58:07.418Z,89.41
2022-12-25T23:00:40.951Z,89.57
2022-12-25T23:03:20.191Z,89.67
2022-12-25T23:05:57.364Z,89.95
2022-12-25T23:08:26.139Z,89.86
2022-12-25T23:10:56.390Z,90.22
2022-12-25T23:13:52.421Z,90.20
2022-12-25T23:16:24.504Z,90.52
2022-12-25T23:19:13.811Z,90.98
2022-12-25T23:21:56.901Z,90.61
2022-12-25T23:24:46.778Z,90.95
2022-12-25T23:27:20.416Z,91.12
2022-12-25T23:29:51.197Z,91.27
2022-12-25T23:32:25.250Z,91.45
2022-12-25T23:34:56.010Z,91.56
2022-12-25T23:37:24.373Z,91.63
2022-12-25T23:39:55.134Z,91.52
2022-12-25T23:42:25.371Z,91.55
2022-12-25T23:44:55.180Z,91.69
2022-12-25T23:47:24.457Z,91.72
2022-12-25T23:49:58.124Z,91.60
2022-12-25T23:52:27.711Z,91.95
2022-12-25T23:54:57.151Z,92.14
2022-12-25T23:57:25.858Z,92.25
2022-12-25T23:59:54.698Z,92.44
